Time;durP1;ratioP1;P1;durP2;ratioP2;P2;SDS_P1;SDS_P2;PMS_P1;PMS_P2;Temp;Humidity;BMP_temperature;BMP_pressure;BME280_temperature;BME280_humidity;BME280_pressure;Samples;Min_cycle;Max_cycle;Signal;HPM_P1;HPM_P2
2023/03/17 00:00:14;;;;;;;4.63;1.10;;;8.90;99.90;;;;;;4972509;28;20065;-78
2023/03/17 00:02:44;;;;;;;2.47;1.38;;;8.90;99.90;;;;;;4951350;28;20195;-78
2023/03/17 00:05:32;;;;;;;3.30;1.60;;;8.90;99.90;;;;;;4953104;28;20049;-78
2023/03/17 00:08:00;;;;;;;5.60;1.50;;;8.90;99.90;;;;;;4970829;28;20039;-78
2023/03/17 00:10:26;;;;;;;1.90;1.10;;;8.80;99.90;;;;;;4949992;28;20117;-78
2023/03/17 00:12:53;;;;;;;2.83;1.25;;;8.90;99.90;;;;;;4965612;28;20589;-79
2023/03/17 00:15:20;;;;;;;2.20;0.98;;;9.00;99.90;;;;;;4959339;28;20061;-78
2023/03/17 00:17:46;;;;;;;3.08;1.38;;;8.90;99.90;;;;;;4966770;28;20034;-78
2023/03/17 00:20:21;;;;;;;2.78;1.63;;;9.00;99.90;;;;;;4950170;28;20177;-79
2023/03/17 00:22:47;;;;;;;3.10;1.42;;;9.00;99.90;;;;;;4975413;28;20044;-79
2023/03/17 00:25:22;;;;;;;3.80;1.65;;;9.00;99.90;;;;;;4975812;28;20053;-78
2023/03/17 00:27:48;;;;;;;4.07;1.05;;;9.00;99.90;;;;;;4966351;28;20053;-78
2023/03/17 00:30:14;;;;;;;4.00;1.35;;;9.00;99.90;;;;;;4972450;28;20046;-78
2023/03/17 00:32:40;;;;;;;3.63;1.58;;;9.00;99.90;;;;;;4968756;28;20037;-78
2023/03/17 00:35:14;;;;;;;3.05;1.30;;;9.00;99.90;;;;;;4955343;28;21044;-78
2023/03/17 00:37:40;;;;;;;5.60;1.20;;;9.00;99.90;;;;;;4950904;28;20038;-78
2023/03/17 00:40:18;;;;;;;1.85;1.15;;;9.00;99.90;;;;;;4951843;28;20033;-79
2023/03/17 00:42:44;;;;;;;8.18;1.52;;;9.00;99.90;;;;;;4965980;28;20040;-80
2023/03/17 00:45:10;;;;;;;3.38;1.27;;;9.10;99.90;;;;;;4971144;28;20560;-79
2023/03/17 00:47:36;;;;;;;2.22;1.25;;;9.00;99.90;;;;;;4957800;28;20037;-80
2023/03/17 00:50:03;;;;;;;3.00;1.30;;;9.00;99.90;;;;;;4960207;28;20494;-80
2023/03/17 00:52:29;;;;;;;3.80;1.85;;;9.00;99.90;;;;;;4968787;28;20057;-80
2023/03/17 00:54:55;;;;;;;3.03;1.25;;;9.00;99.90;;;;;;4955969;28;20617;-80
2023/03/17 00:57:20;;;;;;;3.97;1.40;;;9.00;99.90;;;;;;4953919;28;20156;-78
2023/03/17 00:59:46;;;;;;;1.33;1.20;;;9.00;99.90;;;;;;4969671;28;20071;-78
2023/03/17 01:02:11;;;;;;;1.50;1.10;;;9.00;99.90;;;;;;4955672;28;20497;-78
2023/03/17 01:04:37;;;;;;;3.13;1.48;;;9.10;99.90;;;;;;4968535;28;20041;-78
2023/03/17 01:07:03;;;;;;;3.83;1.20;;;9.00;99.90;;;;;;4969158;28;20055;-78
2023/03/17 01:09:29;;;;;;;2.28;1.10;;;9.00;99.90;;;;;;4957682;28;20702;-79
2023/03/17 01:11:55;;;;;;;2.42;1.30;;;9.00;99.90;;;;;;4952112;28;20038;-78
2023/03/17 01:14:21;;;;;;;1.48;0.93;;;9.00;99.90;;;;;;4963584;28;20030;-78
2023/03/17 01:16:47;;;;;;;2.22;1.20;;;9.10;99.90;;;;;;4956662;28;20103;-78
2023/03/17 01:19:12;;;;;;;3.03;1.50;;;9.00;99.90;;;;;;4975422;28;20072;-78
2023/03/17 01:21:38;;;;;;;2.75;1.52;;;9.00;99.90;;;;;;4971884;28;20025;-78
2023/03/17 01:24:04;;;;;;;2.15;1.17;;;9.00;99.90;;;;;;4953564;28;20164;-78
2023/03/17 01:26:30;;;;;;;3.35;1.00;;;9.00;99.90;;;;;;4953168;28;20108;-78
2023/03/17 01:28:55;;;;;;;3.60;1.60;;;9.00;99.90;;;;;;4954877;28;20038;-78
2023/03/17 01:31:22;;;;;;;1.67;1.00;;;9.00;99.90;;;;;;4949317;28;20030;-78
2023/03/17 01:33:47;;;;;;;2.50;1.40;;;9.10;99.90;;;;;;4968305;28;20029;-78
2023/03/17 01:36:14;;;;;;;5.20;1.20;;;9.00;99.90;;;;;;4964426;28;20505;-78
2023/03/17 01:38:40;;;;;;;2.53;1.10;;;9.00;99.90;;;;;;4957081;28;20176;-78
2023/03/17 01:41:06;;;;;;;2.38;1.48;;;9.00;99.90;;;;;;4947618;28;20137;-78
2023/03/17 01:43:31;;;;;;;1.90;1.20;;;9.00;99.90;;;;;;4952967;28;20065;-78
2023/03/17 01:46:15;;;;;;;3.00;1.38;;;8.90;99.90;;;;;;4948385;28;20050;-78
2023/03/17 01:48:43;;;;;;;2.90;1.00;;;9.00;99.90;;;;;;4982436;28;20031;-78
2023/03/17 01:51:11;;;;;;;1.80;1.23;;;8.90;99.90;;;;;;4969170;28;20104;-78
2023/03/17 01:53:37;;;;;;;2.20;1.23;;;8.90;99.90;;;;;;4971659;28;20150;-77
2023/03/17 01:56:03;;;;;;;3.15;1.27;;;8.90;99.90;;;;;;4958887;28;20046;-78
2023/03/17 01:58:28;;;;;;;3.03;1.40;;;9.00;99.90;;;;;;4961223;28;20084;-78
2023/03/17 02:00:54;;;;;;;4.75;1.48;;;8.90;99.90;;;;;;4972797;28;20038;-78
2023/03/17 02:03:20;;;;;;;5.80;1.92;;;8.90;99.90;;;;;;4962154;28;20130;-78
2023/03/17 02:05:47;;;;;;;3.50;1.40;;;8.90;99.90;;;;;;4958426;28;20038;-78
2023/03/17 02:08:14;;;;;;;2.78;1.45;;;8.90;99.90;;;;;;4953279;28;20573;-78
2023/03/17 02:10:40;;;;;;;3.65;1.35;;;8.90;99.90;;;;;;4954617;28;20068;-78
2023/03/17 02:13:06;;;;;;;0.93;0.80;;;8.90;99.90;;;;;;4961843;28;20653;-77
2023/03/17 02:15:39;;;;;;;5.95;1.98;;;8.90;99.90;;;;;;4953879;28;20064;-78
2023/03/17 02:18:05;;;;;;;2.33;1.40;;;8.90;99.90;;;;;;4953029;28;20053;-78
2023/03/17 02:20:31;;;;;;;3.35;1.48;;;8.90;99.90;;;;;;4967256;28;20759;-78
2023/03/17 02:22:57;;;;;;;3.53;1.42;;;8.90;99.90;;;;;;4989581;28;20126;-78
2023/03/17 02:25:23;;;;;;;2.75;1.40;;;8.90;99.90;;;;;;4956068;28;20041;-78
2023/03/17 02:27:51;;;;;;;1.92;1.00;;;8.90;99.90;;;;;;4963656;28;20042;-78
2023/03/17 02:30:18;;;;;;;3.20;1.20;;;8.80;99.90;;;;;;4959809;28;20034;-78
2023/03/17 02:32:43;;;;;;;2.92;1.25;;;8.80;99.90;;;;;;4960006;28;20038;-77
2023/03/17 02:35:09;;;;;;;2.28;1.50;;;8.80;99.90;;;;;;4976199;28;20034;-77
2023/03/17 02:37:35;;;;;;;1.85;1.15;;;8.90;99.90;;;;;;4956872;28;20040;-78
2023/03/17 02:40:01;;;;;;;6.90;2.63;;;8.80;99.90;;;;;;4953408;28;20038;-78
2023/03/17 02:42:27;;;;;;;4.00;1.75;;;8.80;99.90;;;;;;4964684;28;20042;-78
2023/03/17 02:44:53;;;;;;;2.10;1.27;;;8.80;99.90;;;;;;4963824;28;20494;-78
2023/03/17 02:47:19;;;;;;;2.38;1.40;;;8.80;99.90;;;;;;4958054;28;20085;-78
2023/03/17 02:49:45;;;;;;;4.15;1.02;;;8.80;99.90;;;;;;4959608;28;20084;-77
2023/03/17 02:52:10;;;;;;;4.20;0.90;;;8.80;99.90;;;;;;4954448;28;20029;-78
2023/03/17 02:54:36;;;;;;;2.47;1.23;;;8.80;99.90;;;;;;4954969;28;20015;-78
2023/03/17 02:57:02;;;;;;;1.65;0.88;;;8.70;99.90;;;;;;4958447;28;20030;-78
2023/03/17 02:59:27;;;;;;;2.20;1.10;;;8.80;99.90;;;;;;4970871;28;20136;-78
2023/03/17 03:01:54;;;;;;;2.60;1.30;;;8.70;99.90;;;;;;4955884;28;20037;-78
2023/03/17 03:04:20;;;;;;;1.88;1.10;;;8.70;99.90;;;;;;4952289;28;20438;-78
2023/03/17 03:06:46;;;;;;;1.85;1.45;;;8.70;99.90;;;;;;4973441;28;20052;-78
2023/03/17 03:09:12;;;;;;;4.28;1.35;;;8.70;99.90;;;;;;4957418;28;20026;-78
2023/03/17 03:11:38;;;;;;;3.15;1.20;;;8.70;99.90;;;;;;4970122;28;20030;-78
2023/03/17 03:14:04;;;;;;;2.42;1.40;;;8.70;99.90;;;;;;4964349;28;20134;-78
2023/03/17 03:16:29;;;;;;;2.67;1.20;;;8.60;99.90;;;;;;4959965;28;20149;-78
2023/03/17 03:18:55;;;;;;;1.88;1.15;;;8.60;99.90;;;;;;4953938;28;20022;-78
2023/03/17 03:21:21;;;;;;;2.50;1.33;;;8.60;99.90;;;;;;4960859;28;20026;-79
2023/03/17 03:23:46;;;;;;;2.00;1.48;;;8.60;99.90;;;;;;4951496;28;20044;-81
2023/03/17 03:26:12;;;;;;;2.10;1.02;;;8.60;99.90;;;;;;4963360;28;20037;-81
2023/03/17 03:28:37;;;;;;;1.90;1.08;;;8.50;99.90;;;;;;4972001;28;20068;-82
2023/03/17 03:31:03;;;;;;;3.88;1.40;;;8.60;99.90;;;;;;4992483;28;20038;-81
2023/03/17 03:33:29;;;;;;;1.67;1.30;;;8.60;99.90;;;;;;4976621;28;20113;-82
2023/03/17 03:35:54;;;;;;;4.30;1.48;;;8.50;99.90;;;;;;4986993;28;20376;-82
2023/03/17 03:38:20;;;;;;;1.67;1.20;;;8.60;99.90;;;;;;4961807;28;20545;-80
2023/03/17 03:40:46;;;;;;;4.85;1.45;;;8.60;99.90;;;;;;4964435;28;20271;-82
2023/03/17 03:43:12;;;;;;;2.60;1.40;;;8.50;99.90;;;;;;4954075;28;20587;-78
2023/03/17 03:45:37;;;;;;;3.33;1.70;;;8.50;99.90;;;;;;4952207;28;20049;-78
2023/03/17 03:48:03;;;;;;;2.75;1.38;;;8.50;99.90;;;;;;4970476;28;20449;-78
2023/03/17 03:50:29;;;;;;;1.23;0.85;;;8.50;99.90;;;;;;4962743;28;20034;-79
2023/03/17 03:52:55;;;;;;;2.00;1.10;;;8.40;99.90;;;;;;4985570;28;20036;-78
2023/03/17 03:55:20;;;;;;;1.75;1.35;;;8.40;99.90;;;;;;4968156;28;20026;-78
2023/03/17 03:57:46;;;;;;;3.50;1.25;;;8.40;99.90;;;;;;4953569;28;20041;-78
2023/03/17 04:00:13;;;;;;;3.45;1.40;;;8.40;99.90;;;;;;4970638;28;20030;-79
2023/03/17 04:02:40;;;;;;;3.10;1.38;;;8.40;99.90;;;;;;4961998;28;20038;-78
2023/03/17 04:05:08;;;;;;;3.20;1.48;;;8.40;99.90;;;;;;4956041;28;20049;-78
2023/03/17 04:07:34;;;;;;;3.85;1.40;;;8.40;99.90;;;;;;4969369;28;20030;-78
2023/03/17 04:09:59;;;;;;;2.47;1.00;;;8.40;99.90;;;;;;4964102;28;20041;-78
2023/03/17 04:12:25;;;;;;;1.63;1.27;;;8.30;99.90;;;;;;4957984;28;20038;-78
2023/03/17 04:14:51;;;;;;;1.77;1.35;;;8.40;99.90;;;;;;4970812;28;20158;-79
2023/03/17 04:17:16;;;;;;;5.03;1.90;;;8.40;99.90;;;;;;4956389;28;20715;-77
2023/03/17 04:19:42;;;;;;;2.92;1.40;;;8.40;99.90;;;;;;4969053;28;20043;-78
2023/03/17 04:22:10;;;;;;;1.90;1.38;;;8.40;99.90;;;;;;4954526;28;20049;-78
2023/03/17 04:24:36;;;;;;;4.57;1.70;;;8.30;99.90;;;;;;4967532;28;20379;-78
2023/03/17 04:27:02;;;;;;;4.53;1.35;;;8.30;99.90;;;;;;4955668;28;20058;-78
2023/03/17 04:29:27;;;;;;;1.83;1.13;;;8.30;99.90;;;;;;4957351;28;20034;-78
2023/03/17 04:31:53;;;;;;;2.15;1.27;;;8.30;99.90;;;;;;4982963;28;20076;-78
2023/03/17 04:34:18;;;;;;;3.28;1.08;;;8.30;99.90;;;;;;4971661;28;20667;-78
2023/03/17 04:36:45;;;;;;;2.33;1.42;;;8.30;99.90;;;;;;4959251;28;20474;-78
2023/03/17 04:39:11;;;;;;;2.60;1.55;;;8.20;99.90;;;;;;4955886;28;20106;-78
2023/03/17 04:41:36;;;;;;;4.25;1.70;;;8.30;99.90;;;;;;4962290;28;20498;-78
2023/03/17 04:44:02;;;;;;;2.63;1.60;;;8.30;99.90;;;;;;4973901;28;20031;-78
2023/03/17 04:46:27;;;;;;;5.55;1.20;;;8.20;99.90;;;;;;4959550;28;20085;-78
2023/03/17 04:48:53;;;;;;;2.70;1.48;;;8.30;99.90;;;;;;4971105;28;20060;-79
2023/03/17 04:51:19;;;;;;;3.20;1.70;;;8.30;99.90;;;;;;4953821;28;20112;-78
2023/03/17 04:53:44;;;;;;;3.33;1.20;;;8.30;99.90;;;;;;4964650;28;20042;-78
2023/03/17 04:56:10;;;;;;;3.08;1.40;;;8.20;99.90;;;;;;4966469;28;20045;-78
2023/03/17 04:58:36;;;;;;;5.22;1.58;;;8.20;99.90;;;;;;4965649;28;20034;-78
2023/03/17 05:01:02;;;;;;;2.42;1.40;;;8.20;99.90;;;;;;4955153;28;20371;-78
2023/03/17 05:03:29;;;;;;;2.50;1.67;;;8.20;99.90;;;;;;4964271;28;20049;-78
2023/03/17 05:05:57;;;;;;;1.50;1.40;;;8.30;99.90;;;;;;4950033;28;20748;-79
2023/03/17 05:08:23;;;;;;;2.63;1.55;;;8.30;99.90;;;;;;4955035;28;20541;-78
2023/03/17 05:10:50;;;;;;;3.72;1.52;;;8.30;99.90;;;;;;4955623;28;20173;-78
2023/03/17 05:13:15;;;;;;;3.13;1.63;;;8.30;99.90;;;;;;4964883;28;20410;-78
2023/03/17 05:15:45;;;;;;;2.13;1.42;;;8.30;99.90;;;;;;4964351;28;20046;-79
2023/03/17 05:18:11;;;;;;;2.60;1.30;;;8.20;99.90;;;;;;4971023;28;20045;-78
2023/03/17 05:20:36;;;;;;;3.47;1.48;;;8.20;99.90;;;;;;4954561;28;20394;-78
2023/03/17 05:23:02;;;;;;;3.20;2.10;;;8.20;99.90;;;;;;4950704;28;20392;-78
2023/03/17 05:25:28;;;;;;;2.03;1.38;;;8.30;99.90;;;;;;4954140;28;20375;-79
2023/03/17 05:27:53;;;;;;;3.35;1.70;;;8.20;99.90;;;;;;4965133;28;20391;-78
2023/03/17 05:30:19;;;;;;;5.97;2.05;;;8.20;99.90;;;;;;4952660;28;20035;-79
2023/03/17 05:32:45;;;;;;;2.60;1.38;;;8.20;99.90;;;;;;4953407;28;20045;-78
2023/03/17 05:35:11;;;;;;;2.10;1.08;;;8.20;99.90;;;;;;4956401;28;20188;-80
2023/03/17 05:37:36;;;;;;;3.63;1.60;;;8.20;99.90;;;;;;4949131;28;20120;-79
2023/03/17 05:40:02;;;;;;;2.35;1.38;;;8.20;99.90;;;;;;4967196;28;20069;-79
2023/03/17 05:42:28;;;;;;;2.35;1.52;;;8.20;99.90;;;;;;4968490;28;20038;-80
2023/03/17 05:44:53;;;;;;;3.28;1.83;;;8.10;99.90;;;;;;4951512;28;20506;-79
2023/03/17 05:47:19;;;;;;;3.63;1.63;;;8.10;99.90;;;;;;4949508;28;20035;-79
2023/03/17 05:49:45;;;;;;;3.92;1.63;;;8.10;99.90;;;;;;4957106;28;20034;-79
2023/03/17 05:52:11;;;;;;;1.15;0.93;;;8.10;99.90;;;;;;4952897;28;20042;-79
2023/03/17 05:54:36;;;;;;;3.47;1.92;;;8.20;99.90;;;;;;4967136;28;20371;-78
2023/03/17 05:57:02;;;;;;;3.42;1.92;;;8.20;99.90;;;;;;4966859;28;20038;-79
2023/03/17 05:59:28;;;;;;;3.47;1.65;;;8.20;99.90;;;;;;4972960;28;20029;-79
2023/03/17 06:01:54;;;;;;;5.45;1.85;;;8.20;99.90;;;;;;4951306;28;20034;-79
2023/03/17 06:04:19;;;;;;;4.68;1.60;;;8.20;99.90;;;;;;4966550;28;20032;-80
2023/03/17 06:06:45;;;;;;;5.68;1.95;;;8.20;99.90;;;;;;4957716;28;20053;-80
2023/03/17 06:09:11;;;;;;;5.75;1.67;;;8.30;99.90;;;;;;4949316;28;20026;-80
2023/03/17 06:11:37;;;;;;;4.70;1.92;;;8.20;99.90;;;;;;4947789;28;20030;-80
2023/03/17 06:14:02;;;;;;;2.05;1.48;;;8.10;99.90;;;;;;4959551;28;20034;-80
2023/03/17 06:16:29;;;;;;;2.80;1.20;;;8.10;99.90;;;;;;4967690;28;20093;-79
2023/03/17 06:18:55;;;;;;;2.53;1.65;;;8.10;99.90;;;;;;4950805;28;20070;-79
2023/03/17 06:21:21;;;;;;;3.30;1.55;;;8.10;99.90;;;;;;4966082;28;20061;-79
2023/03/17 06:23:46;;;;;;;2.40;1.50;;;8.20;99.90;;;;;;4975701;28;20049;-79
2023/03/17 06:26:12;;;;;;;1.88;1.35;;;8.20;99.90;;;;;;4971718;28;20052;-79
2023/03/17 06:28:37;;;;;;;4.93;2.20;;;8.20;99.90;;;;;;4952408;28;20049;-80
2023/03/17 06:31:03;;;;;;;4.30;1.80;;;8.30;99.90;;;;;;4954105;28;20111;-79
2023/03/17 06:33:29;;;;;;;2.80;1.55;;;8.40;99.90;;;;;;4957943;28;20073;-79
2023/03/17 06:35:55;;;;;;;3.00;1.45;;;8.50;99.90;;;;;;4956971;28;20045;-79
2023/03/17 06:38:20;;;;;;;5.10;1.63;;;8.50;99.90;;;;;;4954490;28;20042;-79
2023/03/17 06:40:46;;;;;;;3.83;1.95;;;8.60;99.90;;;;;;4959866;28;20073;-79
2023/03/17 06:43:12;;;;;;;4.32;2.03;;;8.60;99.90;;;;;;4953062;28;20418;-79
2023/03/17 06:45:38;;;;;;;3.28;1.70;;;8.60;99.90;;;;;;4957054;28;20046;-79
2023/03/17 06:48:03;;;;;;;4.68;2.05;;;8.60;99.90;;;;;;4965779;28;20080;-79
2023/03/17 06:50:29;;;;;;;5.07;1.80;;;8.70;99.90;;;;;;4956578;28;20045;-79
2023/03/17 06:52:55;;;;;;;2.45;1.50;;;8.80;99.90;;;;;;4969298;28;20038;-79
2023/03/17 06:55:21;;;;;;;4.65;1.40;;;8.80;99.90;;;;;;4969947;28;20031;-80
2023/03/17 06:57:46;;;;;;;4.68;2.22;;;8.90;99.90;;;;;;4988505;28;20084;-77
2023/03/17 07:00:12;;;;;;;3.38;1.60;;;9.00;99.90;;;;;;4961464;28;20048;-78
2023/03/17 07:02:38;;;;;;;4.35;1.67;;;9.00;99.90;;;;;;4967319;28;20034;-78
2023/03/17 07:05:05;;;;;;;2.90;1.42;;;9.10;99.90;;;;;;4966064;28;20040;-77
2023/03/17 07:07:30;;;;;;;5.00;1.27;;;9.20;99.90;;;;;;4971926;28;20140;-79
2023/03/17 07:09:57;;;;;;;4.95;1.75;;;9.50;99.90;;;;;;4950085;28;20541;-78
2023/03/17 07:12:22;;;;;;;2.75;1.70;;;9.60;99.90;;;;;;4976097;28;20121;-78
2023/03/17 07:14:48;;;;;;;2.08;1.02;;;9.70;99.90;;;;;;4958575;28;20149;-78
2023/03/17 07:17:13;;;;;;;3.60;1.50;;;9.70;99.90;;;;;;4974252;28;20045;-78
2023/03/17 07:19:39;;;;;;;2.80;1.60;;;9.80;99.90;;;;;;4954888;28;20041;-78
2023/03/17 07:22:06;;;;;;;2.97;1.65;;;10.00;99.90;;;;;;4973584;28;20042;-78
2023/03/17 07:24:31;;;;;;;2.22;1.60;;;10.00;99.90;;;;;;4960090;28;20449;-78
2023/03/17 07:26:57;;;;;;;2.92;1.63;;;10.20;99.90;;;;;;4955806;28;20030;-78
2023/03/17 07:29:22;;;;;;;3.72;1.58;;;10.30;99.90;;;;;;4970160;28;20057;-78
2023/03/17 07:31:48;;;;;;;2.78;1.63;;;10.50;99.90;;;;;;4969878;28;20033;-79
2023/03/17 07:34:14;;;;;;;2.55;1.42;;;10.60;99.90;;;;;;4966474;28;20319;-78
2023/03/17 07:36:40;;;;;;;6.95;1.73;;;10.80;99.90;;;;;;4953248;28;20038;-78
2023/03/17 07:39:05;;;;;;;2.20;1.50;;;10.90;99.90;;;;;;4960225;28;20030;-78
2023/03/17 07:41:31;;;;;;;3.70;2.10;;;11.10;99.90;;;;;;4967683;28;20030;-79
2023/03/17 07:43:57;;;;;;;6.38;1.88;;;11.10;99.90;;;;;;4949151;28;20022;-78
2023/03/17 07:46:22;;;;;;;3.28;1.55;;;11.20;99.90;;;;;;4969922;28;20113;-78
2023/03/17 07:48:48;;;;;;;4.43;1.80;;;11.60;99.70;;;;;;4968620;28;20065;-79
2023/03/17 07:51:16;;;;;;;2.40;1.40;;;11.60;99.50;;;;;;4953830;28;20037;-79
2023/03/17 07:53:41;;;;;;;4.40;1.85;;;11.60;99.10;;;;;;4984693;28;20102;-78
2023/03/17 07:56:07;;;;;;;3.38;1.63;;;11.80;99.10;;;;;;4966787;28;20143;-79
2023/03/17 07:58:33;;;;;;;4.13;1.60;;;11.80;99.30;;;;;;4970752;28;20030;-79
2023/03/17 08:00:59;;;;;;;2.60;1.13;;;11.90;99.20;;;;;;4974653;28;20025;-78
2023/03/17 08:03:25;;;;;;;2.45;1.70;;;12.00;98.70;;;;;;4978434;28;20041;-78
2023/03/17 08:05:54;;;;;;;2.47;1.75;;;12.00;98.20;;;;;;4968906;28;20060;-79
2023/03/17 08:08:21;;;;;;;2.88;1.67;;;12.10;98.90;;;;;;4957808;28;20038;-79
2023/03/17 08:10:47;;;;;;;2.65;1.60;;;12.30;98.50;;;;;;4972404;28;20056;-78
2023/03/17 08:13:13;;;;;;;6.43;1.35;;;12.30;98.90;;;;;;4967077;28;20060;-79
2023/03/17 08:15:38;;;;;;;3.80;1.60;;;12.40;98.80;;;;;;4969950;28;20030;-79
2023/03/17 08:18:04;;;;;;;1.52;1.15;;;12.50;98.20;;;;;;4953126;28;20057;-78
2023/03/17 08:20:30;;;;;;;3.63;1.30;;;12.70;97.80;;;;;;4967060;28;20034;-79
2023/03/17 08:22:55;;;;;;;4.03;1.50;;;12.60;98.10;;;;;;4950448;28;20050;-79
2023/03/17 08:25:21;;;;;;;2.63;1.70;;;12.70;97.90;;;;;;4957983;28;20060;-78
2023/03/17 08:27:47;;;;;;;4.60;1.90;;;12.70;97.10;;;;;;4969020;28;20661;-77
2023/03/17 08:30:15;;;;;;;3.40;1.98;;;12.80;97.70;;;;;;4974612;28;20470;-80
2023/03/17 08:32:41;;;;;;;3.42;1.40;;;12.70;97.30;;;;;;4949029;28;20533;-79
2023/03/17 08:35:10;;;;;;;4.07;1.48;;;12.80;97.40;;;;;;4973861;28;20038;-78
2023/03/17 08:37:36;;;;;;;5.07;1.60;;;13.00;97.00;;;;;;4973974;28;20069;-78
2023/03/17 08:40:04;;;;;;;3.78;1.55;;;13.10;96.90;;;;;;4967773;28;20057;-79
2023/03/17 08:42:30;;;;;;;5.88;1.65;;;13.10;96.60;;;;;;4955635;28;20077;-78
2023/03/17 08:44:56;;;;;;;3.63;1.30;;;13.10;98.00;;;;;;4984710;28;20038;-79
2023/03/17 08:47:22;;;;;;;2.42;1.30;;;13.20;98.00;;;;;;4957762;28;20033;-78
2023/03/17 08:49:48;;;;;;;4.25;1.40;;;13.20;98.70;;;;;;4958478;28;20021;-79
2023/03/17 08:52:15;;;;;;;4.45;1.55;;;13.10;99.50;;;;;;4971042;28;20435;-78
2023/03/17 08:54:41;;;;;;;3.03;1.77;;;13.30;98.50;;;;;;4965313;28;20117;-78
2023/03/17 08:57:06;;;;;;;2.55;1.50;;;13.50;97.60;;;;;;4968895;28;20121;-78
2023/03/17 08:59:32;;;;;;;4.90;1.48;;;13.50;97.20;;;;;;4972649;28;20134;-79
2023/03/17 09:01:58;;;;;;;4.13;1.50;;;13.60;97.00;;;;;;4968384;28;20062;-78
2023/03/17 09:04:24;;;;;;;2.55;1.38;;;13.70;97.20;;;;;;4972693;28;20026;-80
2023/03/17 09:06:50;;;;;;;2.50;1.05;;;13.80;96.10;;;;;;4974156;28;20359;-78
2023/03/17 09:09:16;;;;;;;3.15;1.85;;;14.10;95.50;;;;;;4971434;28;20033;-78
2023/03/17 09:11:42;;;;;;;1.38;1.13;;;14.10;95.60;;;;;;4970867;28;20041;-78
2023/03/17 09:14:08;;;;;;;2.60;1.50;;;14.10;95.80;;;;;;4963365;28;20572;-78
2023/03/17 09:16:34;;;;;;;5.53;1.52;;;14.20;95.00;;;;;;4956115;28;20117;-79
2023/03/17 09:18:59;;;;;;;2.53;1.23;;;14.30;94.30;;;;;;4955200;28;20097;-79
2023/03/17 09:21:26;;;;;;;1.85;1.50;;;14.40;93.90;;;;;;4950818;28;20026;-79
2023/03/17 09:23:51;;;;;;;1.95;1.10;;;14.60;94.90;;;;;;4973015;28;20037;-79
2023/03/17 09:26:18;;;;;;;4.05;1.70;;;14.50;94.30;;;;;;4951922;28;20767;-79
2023/03/17 09:28:44;;;;;;;5.65;1.88;;;14.60;94.70;;;;;;4952991;28;20044;-80
2023/03/17 09:31:10;;;;;;;4.57;1.42;;;14.50;95.40;;;;;;4966193;28;20034;-80
2023/03/17 09:33:36;;;;;;;1.38;1.23;;;14.70;95.70;;;;;;4952629;28;20861;-81
2023/03/17 09:36:02;;;;;;;1.83;1.05;;;14.80;96.50;;;;;;4968207;28;20540;-80
2023/03/17 09:38:27;;;;;;;3.50;1.30;;;15.10;96.30;;;;;;4957177;28;20041;-80
2023/03/17 09:40:58;;;;;;;2.15;1.30;;;15.30;94.90;;;;;;4976828;28;20046;-81
2023/03/17 09:44:03;;;;;;;3.88;1.55;;;15.60;93.80;;;;;;4982435;28;20030;-80
2023/03/17 09:46:46;;;;;;;2.60;1.58;;;15.70;92.80;;;;;;4954607;28;20038;-81
2023/03/17 09:49:13;;;;;;;3.97;1.30;;;16.00;92.50;;;;;;4995037;28;20613;-79
2023/03/17 09:51:39;;;;;;;3.88;1.92;;;16.20;92.10;;;;;;4955083;28;20038;-80
2023/03/17 09:54:26;;;;;;;2.03;1.55;;;16.30;90.70;;;;;;4949326;28;20033;-79
2023/03/17 09:57:05;;;;;;;4.63;1.52;;;16.60;90.30;;;;;;4968676;28;20038;-80
2023/03/17 09:59:34;;;;;;;6.25;1.73;;;16.80;87.30;;;;;;4976916;28;20034;-80
2023/03/17 10:02:00;;;;;;;7.20;1.40;;;16.90;89.60;;;;;;4965949;28;20047;-80
2023/03/17 10:04:26;;;;;;;4.25;1.40;;;17.00;87.20;;;;;;4963017;28;20038;-80
2023/03/17 10:06:53;;;;;;;6.20;1.63;;;17.10;88.00;;;;;;4966887;28;20034;-80
2023/03/17 10:09:41;;;;;;;2.80;1.52;;;17.40;87.80;;;;;;4966325;28;20034;-80
2023/03/17 10:12:19;;;;;;;1.77;1.30;;;17.30;88.10;;;;;;4974620;28;20061;-81
2023/03/17 10:14:58;;;;;;;4.35;1.98;;;17.80;85.90;;;;;;4983078;28;20037;-80
2023/03/17 10:17:34;;;;;;;5.93;2.30;;;17.70;84.70;;;;;;4962274;28;20037;-81
2023/03/17 10:20:04;;;;;;;4.15;1.92;;;17.90;85.30;;;;;;4959772;28;20425;-82
2023/03/17 10:22:54;;;;;;;2.83;1.52;;;17.80;86.40;;;;;;4987894;28;20035;-81
2023/03/17 10:25:27;;;;;;;3.40;1.73;;;17.70;85.40;;;;;;4980943;28;20045;-82
2023/03/17 10:28:10;;;;;;;4.13;1.70;;;18.10;85.10;;;;;;4960698;28;20030;-83
2023/03/17 10:30:36;;;;;;;3.15;1.50;;;18.10;82.00;;;;;;4964657;28;20118;-82
2023/03/17 10:33:03;;;;;;;4.47;1.65;;;18.20;83.50;;;;;;4948025;28;20117;-83
2023/03/17 10:35:29;;;;;;;4.25;1.40;;;18.30;80.00;;;;;;4973485;28;20037;-82
2023/03/17 10:37:57;;;;;;;5.38;1.75;;;18.10;80.20;;;;;;4974054;28;20042;-82
2023/03/17 10:40:25;;;;;;;2.58;1.50;;;18.20;79.00;;;;;;4962978;28;20033;-82
2023/03/17 10:42:55;;;;;;;1.67;1.20;;;18.20;80.90;;;;;;4945560;28;20041;-82
2023/03/17 10:45:27;;;;;;;2.30;1.30;;;18.20;79.60;;;;;;4956986;28;20042;-81
2023/03/17 10:47:55;;;;;;;3.22;1.70;;;18.20;82.40;;;;;;4974926;28;20030;-82
2023/03/17 10:50:31;;;;;;;4.38;1.45;;;18.20;80.20;;;;;;4955797;28;20042;-83
2023/03/17 10:53:07;;;;;;;4.15;1.48;;;18.10;81.50;;;;;;4988015;28;20026;-82
2023/03/17 10:55:32;;;;;;;3.60;1.67;;;18.10;81.70;;;;;;4961460;28;20034;-83
2023/03/17 10:58:14;;;;;;;2.90;1.38;;;18.00;78.70;;;;;;4979541;28;20072;-83
2023/03/17 11:01:04;;;;;;;5.28;1.50;;;17.90;81.80;;;;;;4979396;28;20096;-83
2023/03/17 11:03:37;;;;;;;3.42;1.52;;;18.10;80.20;;;;;;4960906;28;20054;-82
2023/03/17 11:06:14;;;;;;;3.08;1.40;;;18.10;83.40;;;;;;4974945;28;20506;-82
2023/03/17 11:08:53;;;;;;;4.80;1.50;;;18.20;81.30;;;;;;4977898;28;20076;-82
2023/03/17 11:11:41;;;;;;;2.22;1.45;;;18.30;83.60;;;;;;4969806;28;20525;-83
2023/03/17 11:14:15;;;;;;;2.53;1.55;;;18.20;82.20;;;;;;4968846;28;20110;-82
2023/03/17 11:17:02;;;;;;;3.00;1.40;;;18.40;80.30;;;;;;4970336;28;20048;-83
2023/03/17 11:19:51;;;;;;;5.53;1.30;;;18.70;78.60;;;;;;4988141;28;20038;-84
2023/03/17 11:22:28;;;;;;;2.13;1.40;;;18.70;81.50;;;;;;4962673;28;20069;-84
2023/03/17 11:25:03;;;;;;;4.50;1.17;;;18.70;78.10;;;;;;4975145;28;20031;-82
2023/03/17 11:27:38;;;;;;;4.95;1.52;;;18.80;80.40;;;;;;4973813;28;20026;-82
2023/03/17 11:30:21;;;;;;;2.55;1.25;;;18.90;78.80;;;;;;4971394;28;20417;-82
2023/03/17 11:33:10;;;;;;;2.00;1.40;;;19.00;77.80;;;;;;4958323;28;20127;-83
2023/03/17 11:35:45;;;;;;;3.50;1.27;;;19.10;76.40;;;;;;4974290;28;20383;-83
2023/03/17 11:38:18;;;;;;;2.88;1.45;;;19.30;77.60;;;;;;4987282;28;20450;-78
2023/03/17 11:40:57;;;;;;;2.90;1.10;;;19.40;76.50;;;;;;4972943;28;20033;-84
2023/03/17 11:43:33;;;;;;;4.53;1.38;;;19.50;77.20;;;;;;4973444;28;20037;-82
2023/03/17 11:46:19;;;;;;;3.35;1.10;;;19.60;76.70;;;;;;4974864;28;20038;-82
2023/03/17 11:49:21;;;;;;;3.75;1.10;;;19.80;77.30;;;;;;4959838;28;20037;-84
2023/03/17 11:52:20;;;;;;;5.07;1.10;;;19.80;78.10;;;;;;4975155;28;20033;-84
2023/03/17 11:54:54;;;;;;;3.03;1.50;;;19.90;75.70;;;;;;4985486;28;20482;-84
2023/03/17 11:57:24;;;;;;;2.28;1.40;;;20.10;76.40;;;;;;4969188;28;20039;-85
2023/03/17 12:00:11;;;;;;;2.08;1.20;;;20.40;73.50;;;;;;4961998;28;20062;-85
2023/03/17 12:02:48;;;;;;;1.88;1.08;;;20.40;74.50;;;;;;4979107;28;20112;-85
2023/03/17 12:05:19;;;;;;;2.17;1.33;;;20.40;74.10;;;;;;4984513;28;20037;-85
2023/03/17 12:07:59;;;;;;;2.42;1.10;;;20.60;73.70;;;;;;4974042;28;20543;-85
2023/03/17 12:10:44;;;;;;;1.77;1.20;;;20.50;74.60;;;;;;4963482;28;20029;-85
2023/03/17 12:13:22;;;;;;;8.38;1.45;;;20.50;74.70;;;;;;4982453;28;20034;-85
2023/03/17 12:15:51;;;;;;;1.75;0.90;;;20.60;74.20;;;;;;4997038;28;20134;-86
2023/03/17 12:18:22;;;;;;;2.78;1.77;;;20.50;73.50;;;;;;4977779;28;20441;-86
2023/03/17 12:20:55;;;;;;;2.50;1.95;;;20.70;73.60;;;;;;4983322;28;20033;-84
2023/03/17 12:23:35;;;;;;;2.72;1.13;;;20.70;72.30;;;;;;4996013;28;20037;-85
2023/03/17 12:26:11;;;;;;;3.85;1.38;;;20.70;74.40;;;;;;4992227;28;20038;-85
2023/03/17 12:28:51;;;;;;;2.00;1.23;;;20.60;75.00;;;;;;4982750;28;20021;-85
2023/03/17 12:31:30;;;;;;;6.30;2.83;;;20.70;71.30;;;;;;4968107;28;20030;-85
2023/03/17 12:34:02;;;;;;;1.88;1.33;;;20.60;72.90;;;;;;4951476;28;20073;-85
2023/03/17 12:36:30;;;;;;;4.88;1.13;;;20.60;71.40;;;;;;4958061;28;20045;-86
2023/03/17 12:39:00;;;;;;;6.05;1.73;;;20.80;71.90;;;;;;4948707;28;20569;-84
2023/03/17 12:41:45;;;;;;;6.15;1.45;;;20.80;72.20;;;;;;4954150;28;20068;-86
2023/03/17 12:44:19;;;;;;;3.78;1.33;;;20.60;71.10;;;;;;5001901;28;20413;-86
2023/03/17 12:47:10;;;;;;;4.22;1.33;;;20.70;72.00;;;;;;4990798;28;20516;-86
2023/03/17 12:49:35;;;;;;;3.13;1.13;;;20.80;74.00;;;;;;5005717;28;20457;-86
2023/03/17 12:52:33;;;;;;;2.40;1.10;;;20.80;71.30;;;;;;4992452;28;20125;-89
2023/03/17 12:55:00;;;;;;;5.82;1.65;;;20.80;71.00;;;;;;4966475;28;20045;-88
2023/03/17 12:57:36;;;;;;;2.60;1.63;;;20.90;71.40;;;;;;4944955;28;20557;-82
2023/03/17 13:00:17;;;;;;;2.70;1.45;;;20.80;68.80;;;;;;4974673;28;20037;-87